sensor_id;sensor_type;location;lat;lon;timestamp;pressure;altitude;pressure_sealevel;temperature;humidity
49102;BME280;34913;47.520;19.186;2023-04-24T00:01:15;99134.50;;;13.51;55.21
49102;BME280;34913;47.520;19.186;2023-04-24T00:03:42;99139.47;;;13.54;54.90
49102;BME280;34913;47.520;19.186;2023-04-24T00:06:08;99131.66;;;13.53;55.41
49102;BME280;34913;47.520;19.186;2023-04-24T00:08:36;99129.47;;;13.56;55.04
49102;BME280;34913;47.520;19.186;2023-04-24T00:11:01;99122.81;;;13.60;55.22
49102;BME280;34913;47.520;19.186;2023-04-24T00:13:27;99130.13;;;13.58;55.62
49102;BME280;34913;47.520;19.186;2023-04-24T00:15:54;99120.97;;;13.61;55.38
49102;BME280;34913;47.520;19.186;2023-04-24T00:18:20;99124.47;;;13.69;54.73
49102;BME280;34913;47.520;19.186;2023-04-24T00:20:45;99126.78;;;13.73;54.92
49102;BME280;34913;47.520;19.186;2023-04-24T00:23:12;99113.28;;;13.82;54.43
49102;BME280;34913;47.520;19.186;2023-04-24T00:25:37;99128.63;;;13.80;54.72
49102;BME280;34913;47.520;19.186;2023-04-24T00:28:02;99129.44;;;13.81;54.77
49102;BME280;34913;47.520;19.186;2023-04-24T00:30:28;99129.16;;;13.76;55.37
49102;BME280;34913;47.520;19.186;2023-04-24T00:32:53;99132.47;;;13.78;55.03
49102;BME280;34913;47.520;19.186;2023-04-24T00:35:19;99138.97;;;13.83;54.71
49102;BME280;34913;47.520;19.186;2023-04-24T00:37:45;99139.28;;;13.80;55.73
49102;BME280;34913;47.520;19.186;2023-04-24T00:40:11;99144.44;;;13.82;55.24
49102;BME280;34913;47.520;19.186;2023-04-24T00:42:37;99139.63;;;13.85;54.47
49102;BME280;34913;47.520;19.186;2023-04-24T00:45:04;99137.78;;;13.86;54.82
49102;BME280;34913;47.520;19.186;2023-04-24T00:47:30;99140.09;;;13.89;54.92
49102;BME280;34913;47.520;19.186;2023-04-24T00:49:56;99136.59;;;13.88;56.06
49102;BME280;34913;47.520;19.186;2023-04-24T00:52:21;99135.31;;;13.84;55.98
49102;BME280;34913;47.520;19.186;2023-04-24T00:54:49;99129.97;;;13.84;55.65
49102;BME280;34913;47.520;19.186;2023-04-24T00:57:15;99130.78;;;13.85;55.60
49102;BME280;34913;47.520;19.186;2023-04-24T00:59:42;99124.63;;;13.76;57.09
49102;BME280;34913;47.520;19.186;2023-04-24T01:02:09;99125.28;;;13.78;56.18
49102;BME280;34913;47.520;19.186;2023-04-24T01:04:36;99125.78;;;13.82;55.46
49102;BME280;34913;47.520;19.186;2023-04-24T01:07:01;99125.47;;;13.77;55.87
49102;BME280;34913;47.520;19.186;2023-04-24T01:09:27;99125.66;;;13.75;56.14
49102;BME280;34913;47.520;19.186;2023-04-24T01:11:53;99122.81;;;13.77;56.72
49102;BME280;34913;47.520;19.186;2023-04-24T01:14:19;99118.47;;;13.67;56.38
49102;BME280;34913;47.520;19.186;2023-04-24T01:16:45;99128.63;;;13.80;56.03
49102;BME280;34913;47.520;19.186;2023-04-24T01:19:11;99129.97;;;13.84;55.18
49102;BME280;34913;47.520;19.186;2023-04-24T01:21:38;99122.28;;;13.73;56.63
49102;BME280;34913;47.520;19.186;2023-04-24T01:24:05;99131.97;;;13.66;56.41
49102;BME280;34913;47.520;19.186;2023-04-24T01:26:31;99124.66;;;13.60;56.04
49102;BME280;34913;47.520;19.186;2023-04-24T01:28:57;99126.31;;;13.69;56.50
49102;BME280;34913;47.520;19.186;2023-04-24T01:31:22;99124.66;;;13.52;56.73
49102;BME280;34913;47.520;19.186;2023-04-24T01:33:49;99120.28;;;13.43;57.00
49102;BME280;34913;47.520;19.186;2023-04-24T01:36:16;99114.13;;;13.42;57.47
49102;BME280;34913;47.520;19.186;2023-04-24T01:38:41;99113.66;;;13.38;57.40
49102;BME280;34913;47.520;19.186;2023-04-24T01:41:07;99106.97;;;13.43;57.21
49102;BME280;34913;47.520;19.186;2023-04-24T01:43:32;99104.16;;;13.44;57.17
49102;BME280;34913;47.520;19.186;2023-04-24T01:45:58;99098.97;;;13.43;57.49
49102;BME280;34913;47.520;19.186;2023-04-24T01:48:23;99105.16;;;13.43;57.53
49102;BME280;34913;47.520;19.186;2023-04-24T01:50:49;99108.16;;;13.48;56.94
49102;BME280;34913;47.520;19.186;2023-04-24T01:53:14;99096.00;;;13.37;58.08
49102;BME280;34913;47.520;19.186;2023-04-24T01:55:40;99103.66;;;13.40;57.52
49102;BME280;34913;47.520;19.186;2023-04-24T01:58:06;99105.66;;;13.38;57.73
49102;BME280;34913;47.520;19.186;2023-04-24T02:00:32;99098.50;;;13.39;57.56
49102;BME280;34913;47.520;19.186;2023-04-24T02:02:57;99099.66;;;13.36;58.18
49102;BME280;34913;47.520;19.186;2023-04-24T02:05:23;99089.00;;;13.36;58.18
49102;BME280;34913;47.520;19.186;2023-04-24T02:07:48;99079.50;;;13.34;58.78
49102;BME280;34913;47.520;19.186;2023-04-24T02:10:14;99084.81;;;13.34;58.27
49102;BME280;34913;47.520;19.186;2023-04-24T02:12:39;99076.81;;;13.34;58.59
49102;BME280;34913;47.520;19.186;2023-04-24T02:15:05;99064.50;;;13.25;59.22
49102;BME280;34913;47.520;19.186;2023-04-24T02:17:31;99047.31;;;13.19;59.54
49102;BME280;34913;47.520;19.186;2023-04-24T02:19:57;99031.00;;;12.90;62.62
49102;BME280;34913;47.520;19.186;2023-04-24T02:22:22;99013.34;;;12.80;65.61
49102;BME280;34913;47.520;19.186;2023-04-24T02:24:47;99013.66;;;12.69;68.34
49102;BME280;34913;47.520;19.186;2023-04-24T02:27:13;99017.13;;;12.53;68.23
49102;BME280;34913;47.520;19.186;2023-04-24T02:29:38;99018.13;;;12.52;70.00
49102;BME280;34913;47.520;19.186;2023-04-24T02:32:04;99007.63;;;12.51;70.80
49102;BME280;34913;47.520;19.186;2023-04-24T02:34:29;99007.31;;;12.54;71.23
49102;BME280;34913;47.520;19.186;2023-04-24T02:36:55;98999.66;;;12.51;71.49
49102;BME280;34913;47.520;19.186;2023-04-24T02:39:21;99007.00;;;12.57;71.28
49102;BME280;34913;47.520;19.186;2023-04-24T02:41:46;99005.44;;;12.46;71.50
49102;BME280;34913;47.520;19.186;2023-04-24T02:44:11;98998.16;;;12.48;72.60
49102;BME280;34913;47.520;19.186;2023-04-24T02:46:37;99003.97;;;12.52;72.76
49102;BME280;34913;47.520;19.186;2023-04-24T02:49:02;98998.31;;;12.55;72.11
49102;BME280;34913;47.520;19.186;2023-04-24T02:51:28;98996.81;;;12.44;72.00
49102;BME280;34913;47.520;19.186;2023-04-24T02:53:54;98998.97;;;12.41;71.77
49102;BME280;34913;47.520;19.186;2023-04-24T02:56:19;99002.59;;;12.40;72.02
49102;BME280;34913;47.520;19.186;2023-04-24T02:58:45;98998.47;;;12.45;72.24
49102;BME280;34913;47.520;19.186;2023-04-24T03:01:10;99003.13;;;12.43;73.12
49102;BME280;34913;47.520;19.186;2023-04-24T03:03:37;99002.63;;;12.48;72.40
49102;BME280;34913;47.520;19.186;2023-04-24T03:06:03;99006.44;;;12.45;73.33
49102;BME280;34913;47.520;19.186;2023-04-24T03:08:31;99013.13;;;12.41;74.74
49102;BME280;34913;47.520;19.186;2023-04-24T03:10:56;99005.78;;;12.43;76.14
49102;BME280;34913;47.520;19.186;2023-04-24T03:13:22;99010.75;;;12.38;76.60
49102;BME280;34913;47.520;19.186;2023-04-24T03:15:47;99006.78;;;12.34;78.16
49102;BME280;34913;47.520;19.186;2023-04-24T03:18:13;99004.91;;;12.26;78.44
49102;BME280;34913;47.520;19.186;2023-04-24T03:20:38;99012.41;;;12.31;78.20
49102;BME280;34913;47.520;19.186;2023-04-24T03:23:04;99015.88;;;12.32;79.00
49102;BME280;34913;47.520;19.186;2023-04-24T03:25:29;99012.41;;;12.31;81.12
49102;BME280;34913;47.520;19.186;2023-04-24T03:27:55;99006.56;;;12.27;81.23
49102;BME280;34913;47.520;19.186;2023-04-24T03:30:20;98999.75;;;12.25;79.02
49102;BME280;34913;47.520;19.186;2023-04-24T03:32:46;99010.41;;;12.25;78.85
49102;BME280;34913;47.520;19.186;2023-04-24T03:35:12;99002.91;;;12.28;79.58
49102;BME280;34913;47.520;19.186;2023-04-24T03:37:37;99001.25;;;12.27;79.91
49102;BME280;34913;47.520;19.186;2023-04-24T03:40:03;99012.41;;;12.31;79.36
49102;BME280;34913;47.520;19.186;2023-04-24T03:42:28;99021.38;;;12.30;76.66
49102;BME280;34913;47.520;19.186;2023-04-24T03:44:54;99020.25;;;12.33;76.28
49102;BME280;34913;47.520;19.186;2023-04-24T03:47:19;99022.41;;;12.45;75.83
49102;BME280;34913;47.520;19.186;2023-04-24T03:49:45;99019.09;;;12.43;76.75
49102;BME280;34913;47.520;19.186;2023-04-24T03:52:10;99002.09;;;12.28;78.06
49102;BME280;34913;47.520;19.186;2023-04-24T03:54:35;98996.06;;;12.18;78.57
49102;BME280;34913;47.520;19.186;2023-04-24T03:57:01;98990.72;;;12.10;79.37
49102;BME280;34913;47.520;19.186;2023-04-24T03:59:27;98990.72;;;12.10;80.23
49102;BME280;34913;47.520;19.186;2023-04-24T04:01:52;98983.41;;;12.12;78.19
49102;BME280;34913;47.520;19.186;2023-04-24T04:04:17;98988.09;;;12.18;78.91
49102;BME280;34913;47.520;19.186;2023-04-24T04:06:43;98996.94;;;12.26;78.72
49102;BME280;34913;47.520;19.186;2023-04-24T04:09:09;98996.97;;;12.35;77.55
49102;BME280;34913;47.520;19.186;2023-04-24T04:11:35;99008.31;;;12.53;76.13
49102;BME280;34913;47.520;19.186;2023-04-24T04:14:00;99003.78;;;12.45;77.78
49102;BME280;34913;47.520;19.186;2023-04-24T04:16:26;99006.25;;;12.39;78.62
49102;BME280;34913;47.520;19.186;2023-04-24T04:18:51;99010.91;;;12.37;77.84
49102;BME280;34913;47.520;19.186;2023-04-24T04:21:17;99010.72;;;12.30;77.81
49102;BME280;34913;47.520;19.186;2023-04-24T04:23:43;99008.03;;;12.22;76.90
49102;BME280;34913;47.520;19.186;2023-04-24T04:26:09;99003.25;;;12.25;77.74
49102;BME280;34913;47.520;19.186;2023-04-24T04:28:34;99007.22;;;12.21;77.48
49102;BME280;34913;47.520;19.186;2023-04-24T04:31:00;99005.09;;;12.25;78.07
49102;BME280;34913;47.520;19.186;2023-04-24T04:33:26;98996.56;;;12.21;77.56
49102;BME280;34913;47.520;19.186;2023-04-24T04:35:52;98990.44;;;12.21;77.04
49102;BME280;34913;47.520;19.186;2023-04-24T04:38:18;98998.94;;;12.24;76.57
49102;BME280;34913;47.520;19.186;2023-04-24T04:40:45;98996.41;;;12.23;76.28
49102;BME280;34913;47.520;19.186;2023-04-24T04:43:11;99000.25;;;12.28;76.15
49102;BME280;34913;47.520;19.186;2023-04-24T04:45:37;99002.28;;;12.35;75.81
49102;BME280;34913;47.520;19.186;2023-04-24T04:48:04;99005.25;;;12.40;76.13
49102;BME280;34913;47.520;19.186;2023-04-24T04:50:29;98994.16;;;12.44;74.74
49102;BME280;34913;47.520;19.186;2023-04-24T04:52:55;98986.50;;;12.41;74.54
49102;BME280;34913;47.520;19.186;2023-04-24T04:55:21;98977.19;;;12.45;75.04
49102;BME280;34913;47.520;19.186;2023-04-24T04:57:46;98976.50;;;12.43;75.68
49102;BME280;34913;47.520;19.186;2023-04-24T05:00:12;98986.31;;;12.43;75.49
49102;BME280;34913;47.520;19.186;2023-04-24T05:02:38;98982.69;;;12.52;75.39
49102;BME280;34913;47.520;19.186;2023-04-24T05:05:05;98982.53;;;12.62;75.28
49102;BME280;34913;47.520;19.186;2023-04-24T05:07:31;98977.56;;;12.67;75.45
49102;BME280;34913;47.520;19.186;2023-04-24T05:09:56;98972.56;;;12.72;74.60
49102;BME280;34913;47.520;19.186;2023-04-24T05:12:22;98968.75;;;12.74;73.62
49102;BME280;34913;47.520;19.186;2023-04-24T05:14:47;98975.25;;;12.80;73.06
49102;BME280;34913;47.520;19.186;2023-04-24T05:17:13;98966.56;;;12.86;73.72
49102;BME280;34913;47.520;19.186;2023-04-24T05:19:38;98982.88;;;12.83;72.62
49102;BME280;34913;47.520;19.186;2023-04-24T05:22:04;98974.41;;;12.88;71.95
49102;BME280;34913;47.520;19.186;2023-04-24T05:24:32;98987.72;;;12.88;73.16
49102;BME280;34913;47.520;19.186;2023-04-24T05:26:58;98979.22;;;12.84;73.05
49102;BME280;34913;47.520;19.186;2023-04-24T05:29:24;98981.06;;;12.83;73.34
49102;BME280;34913;47.520;19.186;2023-04-24T05:31:51;98977.56;;;12.75;73.50
49102;BME280;34913;47.520;19.186;2023-04-24T05:34:16;98974.72;;;12.76;73.01
49102;BME280;34913;47.520;19.186;2023-04-24T05:36:42;98979.22;;;12.84;73.20
49102;BME280;34913;47.520;19.186;2023-04-24T05:39:08;98975.06;;;12.98;72.55
49102;BME280;34913;47.520;19.186;2023-04-24T05:41:34;98980.03;;;13.01;70.94
49102;BME280;34913;47.520;19.186;2023-04-24T05:43:59;98977.91;;;13.04;70.43
49102;BME280;34913;47.520;19.186;2023-04-24T05:46:25;98989.88;;;13.17;69.88
49102;BME280;34913;47.520;19.186;2023-04-24T05:48:50;98993.72;;;13.30;70.89
49102;BME280;34913;47.520;19.186;2023-04-24T05:51:16;98991.53;;;13.26;69.37
49102;BME280;34913;47.520;19.186;2023-04-24T05:53:41;98993.22;;;13.27;68.76
49102;BME280;34913;47.520;19.186;2023-04-24T05:56:07;98997.56;;;13.36;68.59
49102;BME280;34913;47.520;19.186;2023-04-24T05:58:32;98997.88;;;13.33;68.72
49102;BME280;34913;47.520;19.186;2023-04-24T06:00:58;99003.88;;;13.43;67.80
49102;BME280;34913;47.520;19.186;2023-04-24T06:03:24;99004.19;;;13.40;69.38
49102;BME280;34913;47.520;19.186;2023-04-24T06:05:50;98996.38;;;13.38;70.46
49102;BME280;34913;47.520;19.186;2023-04-24T06:08:16;99001.34;;;13.50;69.45
49102;BME280;34913;47.520;19.186;2023-04-24T06:10:42;99004.53;;;13.45;69.36
49102;BME280;34913;47.520;19.186;2023-04-24T06:13:07;99003.00;;;13.51;70.06
49102;BME280;34913;47.520;19.186;2023-04-24T06:15:33;99000.84;;;13.54;68.87
49102;BME280;34913;47.520;19.186;2023-04-24T06:17:59;98996.69;;;13.60;69.54
49102;BME280;34913;47.520;19.186;2023-04-24T06:20:24;98987.97;;;13.66;70.13
49102;BME280;34913;47.520;19.186;2023-04-24T06:22:50;98997.47;;;13.68;69.18
49102;BME280;34913;47.520;19.186;2023-04-24T06:25:15;99004.41;;;13.86;68.81
49102;BME280;34913;47.520;19.186;2023-04-24T06:27:41;99007.97;;;14.17;68.08
49102;BME280;34913;47.520;19.186;2023-04-24T06:30:07;99012.34;;;14.41;67.13
49102;BME280;34913;47.520;19.186;2023-04-24T06:32:32;99011.94;;;14.84;66.34
49102;BME280;34913;47.520;19.186;2023-04-24T06:34:58;99015.03;;;15.18;65.60
49102;BME280;34913;47.520;19.186;2023-04-24T06:37:23;99018.38;;;15.35;63.30
49102;BME280;34913;47.520;19.186;2023-04-24T06:39:49;99013.03;;;15.35;63.33
49102;BME280;34913;47.520;19.186;2023-04-24T06:42:14;99017.25;;;15.29;63.06
49102;BME280;34913;47.520;19.186;2023-04-24T06:44:40;99008.16;;;15.01;64.65
49102;BME280;34913;47.520;19.186;2023-04-24T06:47:10;98999.00;;;14.72;64.84
49102;BME280;34913;47.520;19.186;2023-04-24T06:49:36;99006.69;;;14.36;66.80
49102;BME280;34913;47.520;19.186;2023-04-24T06:52:03;99029.69;;;14.45;66.94
49102;BME280;34913;47.520;19.186;2023-04-24T06:54:29;99021.19;;;14.42;70.09
49102;BME280;34913;47.520;19.186;2023-04-24T06:56:54;99002.41;;;14.27;71.59
49102;BME280;34913;47.520;19.186;2023-04-24T06:59:20;99006.63;;;14.13;74.33
49102;BME280;34913;47.520;19.186;2023-04-24T07:01:46;99010.13;;;14.14;74.85
49102;BME280;34913;47.520;19.186;2023-04-24T07:04:11;99010.06;;;13.99;77.04
49102;BME280;34913;47.520;19.186;2023-04-24T07:06:38;99005.53;;;14.00;78.41
49102;BME280;34913;47.520;19.186;2023-04-24T07:09:04;98992.94;;;13.85;78.91
49102;BME280;34913;47.520;19.186;2023-04-24T07:11:30;98989.56;;;13.91;78.20
49102;BME280;34913;47.520;19.186;2023-04-24T07:13:55;99002.53;;;14.03;78.81
49102;BME280;34913;47.520;19.186;2023-04-24T07:16:21;98990.38;;;14.00;76.76
49102;BME280;34913;47.520;19.186;2023-04-24T07:18:46;98992.44;;;14.21;77.52
49102;BME280;34913;47.520;19.186;2023-04-24T07:21:12;98991.91;;;14.25;76.25
49102;BME280;34913;47.520;19.186;2023-04-24T07:23:38;98987.00;;;14.37;77.68
49102;BME280;34913;47.520;19.186;2023-04-24T07:26:04;98987.59;;;14.24;76.03
49102;BME280;34913;47.520;19.186;2023-04-24T07:28:29;98981.31;;;14.40;76.12
49102;BME280;34913;47.520;19.186;2023-04-24T07:30:58;98994.66;;;14.48;75.04
49102;BME280;34913;47.520;19.186;2023-04-24T07:33:25;99003.34;;;14.42;74.86
49102;BME280;34913;47.520;19.186;2023-04-24T07:35:50;99010.16;;;14.45;76.44
49102;BME280;34913;47.520;19.186;2023-04-24T07:38:17;99010.50;;;14.42;77.67
49102;BME280;34913;47.520;19.186;2023-04-24T07:40:45;99015.31;;;14.55;76.15
49102;BME280;34913;47.520;19.186;2023-04-24T07:43:10;99014.59;;;14.61;76.35
49102;BME280;34913;47.520;19.186;2023-04-24T07:45:36;99014.06;;;14.65;76.92
49102;BME280;34913;47.520;19.186;2023-04-24T07:48:03;99010.44;;;14.58;76.11
49102;BME280;34913;47.520;19.186;2023-04-24T07:50:28;99012.28;;;14.58;75.45
49102;BME280;34913;47.520;19.186;2023-04-24T07:52:54;99006.38;;;14.39;76.91
49102;BME280;34913;47.520;19.186;2023-04-24T07:55:19;99000.50;;;14.05;77.70
49102;BME280;34913;47.520;19.186;2023-04-24T07:57:45;98999.25;;;13.92;78.05
49102;BME280;34913;47.520;19.186;2023-04-24T08:00:11;98991.88;;;13.94;79.72
49102;BME280;34913;47.520;19.186;2023-04-24T08:02:36;98993.47;;;14.12;79.07
49102;BME280;34913;47.520;19.186;2023-04-24T08:05:02;98993.94;;;14.23;77.93
49102;BME280;34913;47.520;19.186;2023-04-24T08:07:28;98998.81;;;14.43;78.02
49102;BME280;34913;47.520;19.186;2023-04-24T08:09:54;98998.16;;;14.49;78.05
49102;BME280;34913;47.520;19.186;2023-04-24T08:12:19;98994.50;;;14.73;75.87
49102;BME280;34913;47.520;19.186;2023-04-24T08:14:45;98998.81;;;14.97;75.28
49102;BME280;34913;47.520;19.186;2023-04-24T08:17:10;98996.34;;;14.95;76.14
49102;BME280;34913;47.520;19.186;2023-04-24T08:19:36;98987.69;;;15.08;74.81
49102;BME280;34913;47.520;19.186;2023-04-24T08:22:01;98990.47;;;15.15;73.94
49102;BME280;34913;47.520;19.186;2023-04-24T08:24:27;98985.94;;;15.53;74.17
49102;BME280;34913;47.520;19.186;2023-04-24T08:26:53;98981.09;;;15.86;72.11
49102;BME280;34913;47.520;19.186;2023-04-24T08:29:19;98973.88;;;15.72;71.62
49102;BME280;34913;47.520;19.186;2023-04-24T08:31:45;98990.56;;;15.59;72.58
49102;BME280;34913;47.520;19.186;2023-04-24T08:34:10;98991.25;;;15.61;71.73
49102;BME280;34913;47.520;19.186;2023-04-24T08:36:36;98988.66;;;15.68;72.07
49102;BME280;34913;47.520;19.186;2023-04-24T08:39:02;98991.88;;;15.78;70.69
49102;BME280;34913;47.520;19.186;2023-04-24T08:41:27;98989.03;;;15.94;71.79
49102;BME280;34913;47.520;19.186;2023-04-24T08:43:53;98986.34;;;16.09;71.14
49102;BME280;34913;47.520;19.186;2023-04-24T08:46:20;98992.22;;;16.19;70.00
49102;BME280;34913;47.520;19.186;2023-04-24T08:48:45;98993.72;;;16.22;70.12
49102;BME280;34913;47.520;19.186;2023-04-24T08:51:11;98987.16;;;16.60;68.09
49102;BME280;34913;47.520;19.186;2023-04-24T08:53:37;98986.16;;;17.04;67.55
49102;BME280;34913;47.520;19.186;2023-04-24T08:56:03;98987.91;;;17.40;66.39
49102;BME280;34913;47.520;19.186;2023-04-24T08:58:29;98982.25;;;17.91;63.25
49102;BME280;34913;47.520;19.186;2023-04-24T09:00:56;98986.28;;;18.14;62.80
49102;BME280;34913;47.520;19.186;2023-04-24T09:03:23;98978.16;;;18.42;61.07
49102;BME280;34913;47.520;19.186;2023-04-24T09:05:49;98982.56;;;18.16;61.65
49102;BME280;34913;47.520;19.186;2023-04-24T09:08:17;98977.81;;;18.11;62.45
49102;BME280;34913;47.520;19.186;2023-04-24T09:10:43;98981.25;;;18.46;59.68
49102;BME280;34913;47.520;19.186;2023-04-24T09:13:08;98979.69;;;18.72;59.88
49102;BME280;34913;47.520;19.186;2023-04-24T09:15:35;98982.19;;;18.86;59.93
49102;BME280;34913;47.520;19.186;2023-04-24T09:18:01;98980.78;;;19.37;58.35
49102;BME280;34913;47.520;19.186;2023-04-24T09:20:27;98975.19;;;19.51;55.30
49102;BME280;34913;47.520;19.186;2023-04-24T09:22:54;98971.56;;;19.97;54.12
49102;BME280;34913;47.520;19.186;2023-04-24T09:25:20;98970.91;;;20.08;54.75
49102;BME280;34913;47.520;19.186;2023-04-24T09:27:46;98965.09;;;20.12;52.74
49102;BME280;34913;47.520;19.186;2023-04-24T09:30:13;98962.16;;;20.20;53.99
49102;BME280;34913;47.520;19.186;2023-04-24T09:32:38;98958.53;;;20.46;53.06
49102;BME280;34913;47.520;19.186;2023-04-24T09:37:37;98950.25;;;20.47;53.72
49102;BME280;34913;47.520;19.186;2023-04-24T09:40:19;98951.28;;;20.40;53.46
49102;BME280;34913;47.520;19.186;2023-04-24T09:42:54;98943.00;;;20.79;52.36
49102;BME280;34913;47.520;19.186;2023-04-24T09:45:22;98948.09;;;20.62;51.76
49102;BME280;34913;47.520;19.186;2023-04-24T09:47:52;98945.16;;;20.64;50.64
49102;BME280;34913;47.520;19.186;2023-04-24T09:50:19;98932.69;;;20.31;47.27
49102;BME280;34913;47.520;19.186;2023-04-24T09:52:46;98941.16;;;20.35;51.63
49102;BME280;34913;47.520;19.186;2023-04-24T09:55:18;98942.03;;;20.67;50.34
49102;BME280;34913;47.520;19.186;2023-04-24T09:57:48;98931.72;;;20.89;50.65
49102;BME280;34913;47.520;19.186;2023-04-24T10:00:28;98934.31;;;20.32;49.20
49102;BME280;34913;47.520;19.186;2023-04-24T10:03:00;98928.78;;;20.21;51.32
49102;BME280;34913;47.520;19.186;2023-04-24T10:05:28;98935.47;;;20.56;49.24
49102;BME280;34913;47.520;19.186;2023-04-24T10:08:08;98935.50;;;20.81;49.29
49102;BME280;34913;47.520;19.186;2023-04-24T10:10:37;98935.16;;;20.71;44.62
49102;BME280;34913;47.520;19.186;2023-04-24T10:13:03;98926.50;;;20.62;45.30
49102;BME280;34913;47.520;19.186;2023-04-24T10:15:29;98922.84;;;20.50;46.52
49102;BME280;34913;47.520;19.186;2023-04-24T10:17:57;98930.97;;;20.44;46.49
49102;BME280;34913;47.520;19.186;2023-04-24T10:20:25;98926.66;;;20.29;46.16
49102;BME280;34913;47.520;19.186;2023-04-24T10:22:52;98934.84;;;20.10;46.75
49102;BME280;34913;47.520;19.186;2023-04-24T10:25:20;98922.47;;;19.95;47.58
49102;BME280;34913;47.520;19.186;2023-04-24T10:27:47;98930.91;;;20.05;48.34
49102;BME280;34913;47.520;19.186;2023-04-24T10:30:13;98924.94;;;19.97;47.97
49102;BME280;34913;47.520;19.186;2023-04-24T10:32:39;98929.38;;;19.78;47.88
49102;BME280;34913;47.520;19.186;2023-04-24T10:35:06;98935.22;;;19.48;48.08
49102;BME280;34913;47.520;19.186;2023-04-24T10:37:56;98921.97;;;19.47;48.26
49102;BME280;34913;47.520;19.186;2023-04-24T10:40:33;98913.47;;;19.50;49.41
49102;BME280;34913;47.520;19.186;2023-04-24T10:43:01;98909.13;;;19.42;50.14
49102;BME280;34913;47.520;19.186;2023-04-24T10:45:27;98920.94;;;19.48;50.15
49102;BME280;34913;47.520;19.186;2023-04-24T10:47:56;98928.59;;;19.44;50.83
49102;BME280;34913;47.520;19.186;2023-04-24T10:50:22;98926.97;;;19.37;50.43
49102;BME280;34913;47.520;19.186;2023-04-24T10:52:49;98926.75;;;19.38;49.87
49102;BME280;34913;47.520;19.186;2023-04-24T10:55:41;98927.78;;;19.24;50.04
49102;BME280;34913;47.520;19.186;2023-04-24T10:58:07;98925.75;;;19.13;50.90
49102;BME280;34913;47.520;19.186;2023-04-24T11:00:36;98919.94;;;19.29;51.25
49102;BME280;34913;47.520;19.186;2023-04-24T11:03:05;98931.94;;;19.13;51.05
49102;BME280;34913;47.520;19.186;2023-04-24T11:11:12;98916.41;;;19.09;53.07
49102;BME280;34913;47.520;19.186;2023-04-24T11:19:07;98911.66;;;19.31;52.62
49102;BME280;34913;47.520;19.186;2023-04-24T11:21:40;98910.81;;;19.30;52.30
49102;BME280;34913;47.520;19.186;2023-04-24T11:29:51;98902.94;;;19.35;52.86
49102;BME280;34913;47.520;19.186;2023-04-24T11:34:58;98901.66;;;19.51;51.98
49102;BME280;34913;47.520;19.186;2023-04-24T11:37:36;98896.94;;;19.40;52.44
49102;BME280;34913;47.520;19.186;2023-04-24T11:40:02;98898.59;;;19.34;51.77
49102;BME280;34913;47.520;19.186;2023-04-24T11:42:33;98897.59;;;19.29;51.96
49102;BME280;34913;47.520;19.186;2023-04-24T11:44:59;98898.00;;;19.19;53.84
49102;BME280;34913;47.520;19.186;2023-04-24T11:47:31;98892.59;;;19.32;52.75
49102;BME280;34913;47.520;19.186;2023-04-24T11:49:59;98892.81;;;19.24;53.15
49102;BME280;34913;47.520;19.186;2023-04-24T11:52:26;98887.81;;;19.34;53.29
49102;BME280;34913;47.520;19.186;2023-04-24T11:54:52;98882.66;;;19.39;53.52
49102;BME280;34913;47.520;19.186;2023-04-24T11:57:21;98880.78;;;19.46;53.42
49102;BME280;34913;47.520;19.186;2023-04-24T11:59:48;98873.97;;;19.37;53.80
49102;BME280;34913;47.520;19.186;2023-04-24T12:02:24;98872.69;;;19.46;53.11
49102;BME280;34913;47.520;19.186;2023-04-24T12:04:50;98873.09;;;19.50;53.14
49102;BME280;34913;47.520;19.186;2023-04-24T12:07:15;98867.53;;;19.51;52.87
49102;BME280;34913;47.520;19.186;2023-04-24T12:09:42;98868.13;;;19.53;53.39
49102;BME280;34913;47.520;19.186;2023-04-24T12:12:08;98863.81;;;19.46;54.24
49102;BME280;34913;47.520;19.186;2023-04-24T12:14:46;98862.56;;;19.35;54.09
49102;BME280;34913;47.520;19.186;2023-04-24T12:17:12;98861.59;;;19.03;55.96
49102;BME280;34913;47.520;19.186;2023-04-24T12:19:37;98855.81;;;19.06;56.27
49102;BME280;34913;47.520;19.186;2023-04-24T12:22:05;98860.97;;;18.88;56.71
49102;BME280;34913;47.520;19.186;2023-04-24T12:24:31;98857.47;;;18.94;56.57
49102;BME280;34913;47.520;19.186;2023-04-24T12:26:57;98849.41;;;18.94;56.35
49102;BME280;34913;47.520;19.186;2023-04-24T12:29:24;98857.91;;;18.98;54.12
49102;BME280;34913;47.520;19.186;2023-04-24T12:31:51;98848.97;;;19.10;53.74
49102;BME280;34913;47.520;19.186;2023-04-24T12:34:24;98840.78;;;19.63;51.10
49102;BME280;34913;47.520;19.186;2023-04-24T12:36:50;98839.41;;;19.92;50.72
49102;BME280;34913;47.520;19.186;2023-04-24T12:39:19;98829.44;;;19.99;50.39
49102;BME280;34913;47.520;19.186;2023-04-24T12:41:56;98830.75;;;19.84;51.12
49102;BME280;34913;47.520;19.186;2023-04-24T12:44:42;98831.28;;;19.61;53.16
49102;BME280;34913;47.520;19.186;2023-04-24T12:47:07;98821.19;;;19.36;54.78
49102;BME280;34913;47.520;19.186;2023-04-24T12:49:34;98820.56;;;19.34;55.67
49102;BME280;34913;47.520;19.186;2023-04-24T12:52:00;98818.31;;;19.24;57.28
49102;BME280;34913;47.520;19.186;2023-04-24T12:54:25;98819.63;;;18.95;59.48
49102;BME280;34913;47.520;19.186;2023-04-24T12:56:50;98816.75;;;18.84;61.06
49102;BME280;34913;47.520;19.186;2023-04-24T12:59:16;98820.03;;;18.86;60.09
49102;BME280;34913;47.520;19.186;2023-04-24T13:01:41;98812.81;;;18.86;60.57
49102;BME280;34913;47.520;19.186;2023-04-24T13:04:07;98812.19;;;18.91;61.79
49102;BME280;34913;47.520;19.186;2023-04-24T13:06:32;98805.56;;;18.87;61.14
49102;BME280;34913;47.520;19.186;2023-04-24T13:08:58;98804.56;;;18.75;60.98